Time;durP1;ratioP1;P1;durP2;ratioP2;P2;SDS_P1;SDS_P2;PMS_P1;PMS_P2;Temp;Humidity;BMP_temperature;BMP_pressure;BME280_temperature;BME280_humidity;BME280_pressure;Samples;Min_cycle;Max_cycle;Signal;HPM_P1;HPM_P2
2022/10/13 00:00:42;;;;;;;12.23;9.77;;;;;;;7.44;90.08;100738.03;5102410;28;20508;-68
2022/10/13 00:03:09;;;;;;;16.13;9.90;;;;;;;7.39;89.99;100743.66;5103006;28;20443;-68
2022/10/13 00:05:41;;;;;;;14.00;9.60;;;;;;;7.37;89.79;100742.91;5102897;28;20467;-68
2022/10/13 00:08:07;;;;;;;14.13;10.67;;;;;;;7.33;89.77;100746.75;5102893;28;20485;-68
2022/10/13 00:10:38;;;;;;;14.67;11.43;;;;;;;7.33;89.59;100744.09;5101111;28;20524;-68
2022/10/13 00:13:04;;;;;;;16.60;10.93;;;;;;;7.37;89.60;100740.25;5103411;28;20432;-68
2022/10/13 00:15:31;;;;;;;18.67;9.97;;;;;;;7.34;89.75;100745.78;5102476;28;20467;-68
2022/10/13 00:17:58;;;;;;;13.60;10.43;;;;;;;7.34;89.90;100743.13;5102061;28;20485;-68
2022/10/13 00:20:25;;;;;;;12.47;10.33;;;;;;;7.42;89.95;100743.44;5102071;28;20739;-68
2022/10/13 00:22:51;;;;;;;13.57;9.17;;;;;;;7.50;90.26;100735.78;5102785;28;20427;-68
2022/10/13 00:25:18;;;;;;;17.90;12.40;;;;;;;7.73;90.71;100738.59;5101941;28;20451;-68
2022/10/13 00:27:46;;;;;;;16.97;12.17;;;;;;;7.75;90.93;100735.84;5102298;28;20465;-69
2022/10/13 00:30:13;;;;;;;14.07;10.97;;;;;;;7.78;90.85;100730.28;5102274;28;20452;-68
2022/10/13 00:32:40;;;;;;;17.47;11.87;;;;;;;7.72;90.96;100729.78;5102198;28;20450;-68
2022/10/13 00:35:07;;;;;;;14.47;10.53;;;;;;;7.81;91.30;100724.72;5102271;28;20455;-69
2022/10/13 00:37:34;;;;;;;16.97;11.43;;;;;;;7.87;91.77;100722.47;5101997;28;20464;-70
2022/10/13 00:40:00;;;;;;;15.20;11.23;;;;;;;7.90;91.71;100735.56;5101648;28;20487;-70
2022/10/13 00:42:27;;;;;;;20.13;11.50;;;;;;;7.78;92.03;100739.13;5081558;28;20483;-70
2022/10/13 00:45:20;;;;;;;14.07;11.07;;;;;;;7.72;91.76;100728.91;5082636;28;20452;-70
2022/10/13 00:47:49;;;;;;;15.77;11.80;;;;;;;7.75;91.88;100736.69;5098963;28;20463;-70
2022/10/13 00:50:18;;;;;;;16.57;11.13;;;;;;;7.91;92.14;100742.59;5100863;28;20452;-70
2022/10/13 00:52:46;;;;;;;17.83;10.20;;;;;;;7.80;91.75;100741.69;5102387;28;20442;-70
2022/10/13 00:55:14;;;;;;;12.50;10.53;;;;;;;7.82;91.89;100739.75;5101295;28;20513;-69
2022/10/13 00:57:42;;;;;;;16.03;10.80;;;;;;;7.77;91.79;100734.75;5101623;28;20459;-68
2022/10/13 01:00:12;;;;;;;19.60;13.10;;;;;;;7.88;91.87;100731.31;5101153;28;20475;-68
2022/10/13 01:02:39;;;;;;;15.77;11.87;;;;;;;7.90;91.78;100735.56;5102116;28;20450;-68
2022/10/13 01:05:07;;;;;;;14.83;12.60;;;;;;;8.01;92.07;100717.97;5102131;28;20489;-68
2022/10/13 01:07:35;;;;;;;15.13;11.27;;;;;;;8.05;92.42;100727.41;5101354;28;20536;-68
2022/10/13 01:10:03;;;;;;;17.33;11.43;;;;;;;8.04;92.27;100723.06;5101311;28;20475;-68
2022/10/13 01:12:39;;;;;;;16.70;13.23;;;;;;;8.16;92.85;100716.84;5101346;28;20480;-68
2022/10/13 01:15:13;;;;;;;16.77;13.77;;;;;;;8.19;93.05;100715.75;5101491;28;20448;-69
2022/10/13 01:17:52;;;;;;;21.47;13.80;;;;;;;8.37;93.58;100725.03;5101194;28;20485;-69
2022/10/13 01:20:49;;;;;;;24.43;12.43;;;;;;;8.23;93.35;100722.56;5100178;28;20479;-69
2022/10/13 01:23:31;;;;;;;20.03;12.67;;;;;;;8.21;93.32;100712.03;5054529;28;20448;-69
2022/10/13 01:26:14;;;;;;;16.53;12.83;;;;;;;8.15;93.51;100706.31;5080346;28;20532;-69
2022/10/13 01:29:00;;;;;;;19.33;13.30;;;;;;;8.16;93.68;100700.00;5089466;28;20475;-69
2022/10/13 01:31:34;;;;;;;22.27;13.67;;;;;;;8.12;93.28;100696.72;5100908;28;20468;-69
2022/10/13 01:34:06;;;;;;;17.00;13.20;;;;;;;8.05;92.96;100695.47;5101443;28;20481;-69
2022/10/13 01:36:38;;;;;;;18.80;12.97;;;;;;;7.94;92.54;100701.59;5101188;28;20536;-69
2022/10/13 01:39:07;;;;;;;23.57;14.07;;;;;;;7.90;92.79;100692.97;5101492;28;20482;-69
2022/10/13 01:41:37;;;;;;;25.03;14.73;;;;;;;8.02;92.99;100683.25;5099868;28;20506;-69
2022/10/13 01:44:11;;;;;;;20.67;14.60;;;;;;;7.97;93.62;100685.41;5101660;28;20447;-69
2022/10/13 01:46:41;;;;;;;18.07;12.63;;;;;;;7.93;93.41;100681.25;5100622;28;20485;-69
2022/10/13 01:49:10;;;;;;;21.30;14.20;;;;;;;7.85;93.15;100689.81;5100868;28;20439;-69
2022/10/13 01:51:41;;;;;;;19.27;11.90;;;;;;;7.82;92.78;100675.88;5100169;28;20483;-69
2022/10/13 01:54:08;;;;;;;24.17;13.03;;;;;;;7.84;93.40;100674.78;5101406;28;20443;-69
2022/10/13 01:56:34;;;;;;;17.37;12.13;;;;;;;7.84;93.12;100676.59;5100130;28;20475;-69
2022/10/13 01:59:03;;;;;;;15.77;12.70;;;;;;;7.81;93.36;100671.50;5100636;28;20601;-69
2022/10/13 02:01:41;;;;;;;22.40;13.97;;;;;;;7.88;93.70;100672.75;5100664;28;20563;-69
2022/10/13 02:04:16;;;;;;;23.90;13.93;;;;;;;7.90;93.81;100660.19;5101046;28;20443;-70
2022/10/13 02:06:51;;;;;;;22.27;14.77;;;;;;;7.86;94.23;100664.91;5100380;28;20495;-69
2022/10/13 02:09:22;;;;;;;22.80;14.70;;;;;;;7.95;94.46;100660.69;5100383;28;20581;-69
2022/10/13 02:11:52;;;;;;;23.77;16.23;;;;;;;7.86;94.61;100654.25;5100144;28;21185;-69
2022/10/13 02:14:22;;;;;;;18.10;12.30;;;;;;;7.79;94.25;100644.16;5101028;28;20432;-69
2022/10/13 02:16:51;;;;;;;21.80;13.57;;;;;;;7.81;94.15;100652.88;5099866;28;21000;-70
2022/10/13 02:19:18;;;;;;;25.67;14.47;;;;;;;7.78;94.29;100645.09;5099702;28;20448;-70
2022/10/13 02:21:46;;;;;;;20.37;15.43;;;;;;;7.90;94.55;100647.72;5100306;28;20495;-70
2022/10/13 02:24:13;;;;;;;16.67;12.67;;;;;;;7.82;94.57;100652.75;5100977;28;20520;-70
2022/10/13 02:26:40;;;;;;;17.67;12.30;;;;;;;7.80;94.24;100646.69;5099443;28;20494;-70
2022/10/13 02:29:11;;;;;;;17.13;12.37;;;;;;;7.89;94.17;100647.84;5100208;28;20467;-68
2022/10/13 02:31:38;;;;;;;24.43;14.70;;;;;;;8.04;94.31;100652.03;5100013;28;20471;-68
2022/10/13 02:34:06;;;;;;;20.93;13.30;;;;;;;8.06;94.29;100649.25;5101172;28;20471;-68
2022/10/13 02:36:34;;;;;;;21.80;13.57;;;;;;;8.05;94.11;100645.72;5104365;28;20464;-67
2022/10/13 02:39:01;;;;;;;17.90;13.67;;;;;;;8.11;94.07;100649.75;5104438;28;20458;-67
2022/10/13 02:41:27;;;;;;;15.77;12.60;;;;;;;8.07;94.33;100641.16;5103751;28;20475;-67
2022/10/13 02:43:54;;;;;;;24.97;13.83;;;;;;;8.05;93.78;100648.38;5104936;28;20440;-67
2022/10/13 02:46:21;;;;;;;23.80;13.83;;;;;;;8.05;93.79;100642.22;5103659;28;20471;-67
2022/10/13 02:48:47;;;;;;;18.70;13.87;;;;;;;8.04;93.74;100630.72;5103909;28;20477;-67
2022/10/13 02:51:16;;;;;;;17.00;14.13;;;;;;;8.22;93.81;100639.13;5104026;28;20475;-67
2022/10/13 02:53:42;;;;;;;17.67;12.23;;;;;;;8.18;93.64;100645.66;5104050;28;20478;-67
2022/10/13 02:56:09;;;;;;;18.93;13.87;;;;;;;8.23;94.24;100645.31;5103351;28;20495;-67
2022/10/13 02:58:37;;;;;;;18.27;14.00;;;;;;;8.30;94.02;100644.72;5104229;28;20447;-68
2022/10/13 03:01:07;;;;;;;20.23;13.07;;;;;;;8.25;93.79;100633.56;5104217;28;20475;-68
2022/10/13 03:03:35;;;;;;;22.53;14.27;;;;;;;8.23;93.77;100640.00;5104205;28;20512;-68
2022/10/13 03:06:02;;;;;;;18.97;12.47;;;;;;;8.24;93.58;100639.00;5103922;28;20489;-68
2022/10/13 03:08:31;;;;;;;18.53;14.37;;;;;;;8.23;94.05;100634.66;5098245;28;20462;-68
2022/10/13 03:10:58;;;;;;;20.03;14.50;;;;;;;8.35;94.20;100641.72;5102968;28;20828;-68
2022/10/13 03:13:25;;;;;;;23.00;15.63;;;;;;;8.49;94.49;100635.38;5104153;28;20516;-68
2022/10/13 03:15:51;;;;;;;18.73;14.20;;;;;;;8.48;94.15;100634.50;5103556;28;20463;-68
2022/10/13 03:18:18;;;;;;;23.33;14.47;;;;;;;8.44;94.02;100638.38;5103243;28;20455;-68
2022/10/13 03:20:45;;;;;;;24.23;15.77;;;;;;;8.49;94.32;100643.38;5103396;28;20536;-68
2022/10/13 03:23:11;;;;;;;23.03;14.27;;;;;;;8.48;94.46;100637.16;5104190;28;20512;-68
2022/10/13 03:25:39;;;;;;;20.43;14.00;;;;;;;8.51;94.38;100638.78;5102764;28;20521;-68
2022/10/13 03:28:06;;;;;;;18.60;14.67;;;;;;;8.52;93.94;100644.94;5103715;28;21043;-68
2022/10/13 03:30:33;;;;;;;16.80;13.07;;;;;;;8.48;93.64;100642.50;5103628;28;20528;-68
2022/10/13 03:32:59;;;;;;;23.33;16.60;;;;;;;8.58;94.04;100636.50;5103330;28;20444;-68
2022/10/13 03:35:26;;;;;;;20.00;14.70;;;;;;;8.64;94.21;100642.16;5103218;28;20467;-68
2022/10/13 03:37:54;;;;;;;29.43;16.07;;;;;;;8.73;94.10;100643.31;5103325;28;20511;-68
2022/10/13 03:40:21;;;;;;;20.07;13.83;;;;;;;8.73;94.29;100637.97;5102832;28;20529;-68
2022/10/13 03:42:49;;;;;;;18.60;14.03;;;;;;;8.72;94.35;100633.59;5103475;28;20463;-68
2022/10/13 03:45:15;;;;;;;22.73;16.03;;;;;;;8.77;94.11;100635.91;5102763;28;20480;-70
2022/10/13 03:47:42;;;;;;;24.03;15.70;;;;;;;8.82;94.65;100639.91;5102764;28;20451;-71
2022/10/13 03:50:10;;;;;;;25.80;15.97;;;;;;;8.92;94.57;100632.03;5102467;28;20481;-70
2022/10/13 03:52:37;;;;;;;20.30;15.40;;;;;;;8.93;94.56;100630.22;5103231;28;20930;-70
2022/10/13 03:55:04;;;;;;;29.93;16.47;;;;;;;8.92;94.60;100628.50;5102407;28;20428;-70
2022/10/13 03:57:31;;;;;;;23.90;16.70;;;;;;;8.85;94.67;100630.81;5102847;28;20476;-70
2022/10/13 03:59:59;;;;;;;20.23;15.77;;;;;;;8.88;94.94;100624.41;5103666;28;20451;-70
2022/10/13 04:02:25;;;;;;;21.83;14.27;;;;;;;8.86;94.29;100625.34;5102521;28;20525;-69
2022/10/13 04:04:52;;;;;;;24.10;15.73;;;;;;;8.84;94.31;100623.78;5102998;28;20432;-69
2022/10/13 04:07:19;;;;;;;24.30;14.10;;;;;;;8.75;94.00;100630.69;5102136;28;20509;-69
2022/10/13 04:09:46;;;;;;;18.93;14.00;;;;;;;8.69;94.49;100630.31;5102882;28;20483;-69
2022/10/13 04:12:13;;;;;;;25.07;15.60;;;;;;;8.67;94.19;100625.94;5102109;28;20470;-69
2022/10/13 04:14:39;;;;;;;23.53;16.17;;;;;;;8.70;94.61;100627.53;5103386;28;20424;-69
2022/10/13 04:17:07;;;;;;;19.70;13.97;;;;;;;8.82;95.19;100617.75;5101757;28;20472;-69
2022/10/13 04:19:34;;;;;;;21.47;14.80;;;;;;;8.76;94.82;100613.72;5102135;28;20434;-69
2022/10/13 04:22:01;;;;;;;21.03;15.17;;;;;;;8.86;95.01;100608.53;5102341;28;20503;-68
2022/10/13 04:24:27;;;;;;;27.20;16.90;;;;;;;8.84;95.12;100605.97;5102733;28;20481;-69
2022/10/13 04:26:54;;;;;;;26.90;16.63;;;;;;;9.03;95.38;100602.69;5101601;28;20471;-68
2022/10/13 04:29:21;;;;;;;25.70;17.20;;;;;;;8.97;94.97;100602.34;5102719;28;20509;-69
2022/10/13 04:31:47;;;;;;;22.40;15.83;;;;;;;8.91;94.78;100587.69;5101570;28;20467;-69
2022/10/13 04:34:15;;;;;;;29.53;18.10;;;;;;;9.11;94.93;100612.75;5102406;28;20786;-69
2022/10/13 04:36:42;;;;;;;25.77;16.70;;;;;;;9.15;95.36;100600.00;5101727;28;20483;-69
2022/10/13 04:39:09;;;;;;;22.63;15.00;;;;;;;9.28;94.71;100600.72;5102522;28;20484;-70
2022/10/13 04:41:36;;;;;;;20.53;15.53;;;;;;;9.20;94.70;100604.03;5100518;28;20478;-70
2022/10/13 04:44:03;;;;;;;26.23;17.03;;;;;;;9.21;94.86;100600.38;5100550;28;20448;-70
2022/10/13 04:46:30;;;;;;;21.00;15.30;;;;;;;9.32;94.81;100596.00;5097419;28;20472;-70
2022/10/13 04:48:57;;;;;;;26.37;16.97;;;;;;;9.40;94.63;100596.22;5101257;28;20443;-69
2022/10/13 04:51:26;;;;;;;25.80;16.83;;;;;;;9.45;94.76;100595.88;5100594;28;20467;-69
2022/10/13 04:53:56;;;;;;;24.40;16.60;;;;;;;9.32;94.80;100583.53;5100888;28;20469;-70
2022/10/13 04:56:23;;;;;;;22.53;17.67;;;;;;;9.26;94.29;100591.16;5100418;28;20539;-71
2022/10/13 04:58:50;;;;;;;25.93;16.97;;;;;;;9.38;94.44;100584.84;5100910;28;20447;-70
2022/10/13 05:01:19;;;;;;;28.97;16.20;;;;;;;9.21;94.27;100588.84;5100063;28;20482;-70
2022/10/13 05:03:46;;;;;;;23.07;17.27;;;;;;;9.02;94.39;100579.66;5101364;28;20431;-71
2022/10/13 05:06:17;;;;;;;20.37;16.20;;;;;;;8.99;94.26;100582.59;5101000;28;20476;-71
2022/10/13 05:08:45;;;;;;;20.00;13.93;;;;;;;9.23;93.81;100584.25;5100532;28;20520;-70
2022/10/13 05:11:12;;;;;;;23.80;15.67;;;;;;;9.19;93.64;100575.66;5099855;28;20548;-70
2022/10/13 05:13:39;;;;;;;22.57;14.60;;;;;;;9.31;93.78;100579.16;5101300;28;20455;-69
2022/10/13 05:16:07;;;;;;;20.83;13.70;;;;;;;9.35;93.75;100577.06;5089534;28;20566;-70
2022/10/13 05:18:34;;;;;;;24.07;16.70;;;;;;;9.45;93.69;100571.84;5100161;28;20447;-70
2022/10/13 05:21:06;;;;;;;25.17;16.27;;;;;;;9.65;93.62;100564.84;5100007;28;20475;-71
2022/10/13 05:23:33;;;;;;;30.87;19.23;;;;;;;9.75;93.06;100566.63;5100989;28;20435;-71
2022/10/13 05:26:03;;;;;;;32.00;22.03;;;;;;;9.71;93.20;100561.69;5100094;28;20483;-71
2022/10/13 05:28:30;;;;;;;25.57;16.80;;;;;;;9.80;92.93;100564.41;5101198;28;20457;-70
2022/10/13 05:30:56;;;;;;;21.83;15.13;;;;;;;9.74;92.60;100556.94;5099347;28;20475;-70
2022/10/13 05:33:23;;;;;;;29.20;17.40;;;;;;;9.51;92.80;100558.84;5101319;28;20443;-70
2022/10/13 05:35:50;;;;;;;21.77;15.43;;;;;;;9.42;92.70;100555.09;5100357;28;20989;-70
2022/10/13 05:38:16;;;;;;;22.07;17.63;;;;;;;9.36;93.07;100557.44;5100212;28;20738;-71
2022/10/13 05:40:43;;;;;;;25.10;15.70;;;;;;;9.45;93.06;100559.34;5098625;28;20475;-71
2022/10/13 05:43:11;;;;;;;24.50;15.53;;;;;;;9.50;93.35;100556.31;5101473;28;20521;-71
2022/10/13 05:45:39;;;;;;;23.80;14.53;;;;;;;9.62;92.91;100549.94;5099881;28;20474;-70
2022/10/13 05:48:06;;;;;;;25.73;17.43;;;;;;;9.69;93.13;100551.13;5100665;28;20443;-70
2022/10/13 05:50:34;;;;;;;22.57;17.37;;;;;;;9.74;93.10;100550.75;5099838;28;20489;-69
2022/10/13 05:53:01;;;;;;;25.80;16.50;;;;;;;9.87;92.87;100563.91;5100741;28;20427;-70
2022/10/13 05:55:28;;;;;;;26.40;17.00;;;;;;;9.86;92.77;100555.06;5099841;28;20509;-70
2022/10/13 05:57:54;;;;;;;22.80;16.20;;;;;;;10.00;92.71;100553.91;5100159;28;20585;-69
2022/10/13 06:00:24;;;;;;;26.17;16.37;;;;;;;10.10;92.58;100549.50;5099087;28;20477;-71
2022/10/13 06:02:54;;;;;;;28.23;16.83;;;;;;;10.15;91.93;100552.59;5100719;28;20472;-70
2022/10/13 06:14:27;;;;;;;21.47;15.40;;;;;;;10.43;90.74;100550.25;5155448;27;20970;-69
2022/10/13 06:16:54;;;;;;;27.10;14.70;;;;;;;10.42;90.34;100545.91;5128679;27;20470;-69
2022/10/13 06:19:21;;;;;;;22.43;13.70;;;;;;;10.38;90.27;100544.50;5116698;28;20574;-68
2022/10/13 06:21:47;;;;;;;18.73;14.90;;;;;;;10.43;90.72;100550.25;5116116;27;20480;-69
2022/10/13 06:24:14;;;;;;;20.50;15.77;;;;;;;10.36;90.85;100549.97;5118190;28;20438;-68
2022/10/13 06:26:41;;;;;;;22.70;14.60;;;;;;;10.53;90.29;100548.47;5102258;27;20467;-68
2022/10/13 06:29:08;;;;;;;22.50;13.93;;;;;;;10.62;90.34;100541.50;5096365;28;20879;-76
2022/10/13 06:31:36;;;;;;;22.17;14.10;;;;;;;10.54;90.10;100550.19;5096415;27;20471;-76
2022/10/13 06:34:02;;;;;;;25.40;14.90;;;;;;;10.53;90.19;100547.66;5096529;28;20567;-76
2022/10/13 06:36:29;;;;;;;26.83;14.20;;;;;;;10.67;89.91;100535.75;5095668;27;20501;-77
2022/10/13 06:38:56;;;;;;;21.23;15.30;;;;;;;10.57;89.63;100542.88;5097020;28;20443;-77
2022/10/13 06:41:22;;;;;;;18.83;14.60;;;;;;;10.53;89.84;100535.13;5096610;27;20467;-77
2022/10/13 06:43:49;;;;;;;22.67;13.77;;;;;;;10.57;89.47;100535.69;5093622;28;20873;-76
2022/10/13 06:46:16;;;;;;;19.67;14.87;;;;;;;10.59;89.25;100524.88;5095150;28;21375;-77
2022/10/13 06:48:44;;;;;;;22.47;13.47;;;;;;;10.61;89.23;100536.31;5096659;28;20500;-77
2022/10/13 06:51:12;;;;;;;19.33;13.60;;;;;;;10.66;89.38;100529.56;5095432;28;20597;-76
2022/10/13 06:53:38;;;;;;;20.07;13.30;;;;;;;10.81;89.43;100529.19;5097143;28;20459;-76
2022/10/13 06:56:06;;;;;;;22.03;13.53;;;;;;;10.98;89.02;100536.56;5095229;27;20503;-78
2022/10/13 06:58:34;;;;;;;27.67;18.13;;;;;;;11.00;88.71;100545.28;5093445;28;20456;-76
2022/10/13 07:01:01;;;;;;;20.43;14.63;;;;;;;10.84;89.04;100539.63;5092681;27;21166;-78
2022/10/13 07:03:27;;;;;;;19.93;12.67;;;;;;;11.06;88.53;100535.91;5098546;28;20478;-75
2022/10/13 07:06:00;;;;;;;19.03;13.60;;;;;;;11.11;87.94;100533.66;5094183;28;20479;-76
2022/10/13 07:08:27;;;;;;;23.43;13.17;;;;;;;11.15;87.90;100526.19;5095030;28;20455;-78
2022/10/13 07:10:53;;;;;;;18.37;12.23;;;;;;;11.35;86.70;100529.75;5094911;27;20616;-78
2022/10/13 07:13:20;;;;;;;20.73;13.60;;;;;;;11.62;85.54;100527.22;5094443;28;20541;-78
2022/10/13 07:15:47;;;;;;;23.47;12.10;;;;;;;11.58;85.30;100527.66;5095650;27;20483;-76
2022/10/13 07:18:13;;;;;;;25.63;14.60;;;;;;;11.60;85.21;100523.84;5095684;28;20480;-77
2022/10/13 07:20:40;;;;;;;18.40;13.47;;;;;;;11.45;85.20;100531.44;5094910;27;20521;-77
2022/10/13 07:23:08;;;;;;;21.20;14.17;;;;;;;11.64;85.64;100533.28;5102211;28;20471;-78
2022/10/13 07:25:35;;;;;;;17.13;11.97;;;;;;;11.79;84.77;100530.22;5084787;28;20464;-78
2022/10/13 07:28:02;;;;;;;18.50;12.67;;;;;;;11.41;85.90;100523.84;5081606;28;20979;-79
2022/10/13 07:30:28;;;;;;;24.23;11.70;;;;;;;11.41;86.37;100526.53;5080521;28;20514;-76
2022/10/13 07:32:55;;;;;;;17.43;12.10;;;;;;;12.00;84.38;100525.56;5079781;28;20436;-78
2022/10/13 07:35:24;;;;;;;23.57;13.40;;;;;;;12.04;84.01;100526.94;5080267;28;20468;-78
2022/10/13 07:37:52;;;;;;;19.00;12.60;;;;;;;11.98;83.88;100532.91;5081970;28;20461;-78
2022/10/13 07:40:20;;;;;;;19.13;12.50;;;;;;;11.96;84.50;100516.13;5081458;28;20456;-76
2022/10/13 07:42:47;;;;;;;16.40;11.60;;;;;;;12.34;83.52;100521.53;5081573;28;20476;-78
2022/10/13 07:45:14;;;;;;;25.27;11.60;;;;;;;12.67;81.49;100521.97;5080302;28;20452;-76
2022/10/13 07:47:40;;;;;;;21.30;12.33;;;;;;;13.03;79.16;100522.09;5081988;28;20534;-76
2022/10/13 07:50:09;;;;;;;27.30;12.03;;;;;;;13.44;78.14;100520.75;5078353;28;20445;-76
2022/10/13 07:52:36;;;;;;;18.43;12.17;;;;;;;13.67;76.40;100520.28;5081806;28;20444;-79
2022/10/13 07:55:02;;;;;;;17.63;11.60;;;;;;;14.53;72.86;100522.25;5081854;28;20945;-74
2022/10/13 07:57:30;;;;;;;21.40;13.20;;;;;;;15.01;69.77;100517.28;5076543;28;20480;-70
2022/10/13 07:59:57;;;;;;;13.43;9.60;;;;;;;15.79;67.27;100514.25;5070079;28;20425;-69
2022/10/13 08:02:25;;;;;;;18.63;10.27;;;;;;;16.06;67.24;100514.94;5080352;28;20476;-70
2022/10/13 08:04:51;;;;;;;15.90;9.80;;;;;;;16.04;64.44;100527.75;5080470;28;21341;-70
2022/10/13 08:07:18;;;;;;;16.63;10.10;;;;;;;15.52;65.72;100522.63;5080334;28;20472;-70
2022/10/13 08:09:45;;;;;;;20.50;10.57;;;;;;;15.52;65.54;100520.78;5081273;28;20472;-70
2022/10/13 08:12:12;;;;;;;18.03;10.93;;;;;;;15.53;66.20;100525.16;5079941;28;20514;-70
2022/10/13 08:14:40;;;;;;;15.57;10.60;;;;;;;15.68;66.41;100521.81;5081209;28;20490;-70
2022/10/13 08:17:07;;;;;;;19.50;11.60;;;;;;;16.16;63.63;100514.72;5079834;28;20480;-70
2022/10/13 08:19:34;;;;;;;16.63;9.50;;;;;;;15.71;65.27;100519.63;5074988;28;20476;-70
2022/10/13 08:22:01;;;;;;;16.07;11.40;;;;;;;15.48;65.68;100516.72;5080901;28;20991;-68
2022/10/13 08:24:28;;;;;;;15.27;9.50;;;;;;;14.89;67.54;100516.72;5081581;28;20496;-69
2022/10/13 08:26:54;;;;;;;14.90;9.60;;;;;;;14.75;68.67;100514.66;5079572;28;20468;-69
2022/10/13 08:29:21;;;;;;;15.23;10.43;;;;;;;14.74;69.38;100512.94;5081431;28;20495;-70
2022/10/13 08:31:50;;;;;;;16.83;9.90;;;;;;;14.78;68.66;100514.34;5079249;28;20992;-69
2022/10/13 08:34:16;;;;;;;17.17;11.10;;;;;;;15.13;68.88;100523.22;5080477;28;20432;-70
2022/10/13 08:36:43;;;;;;;14.67;9.60;;;;;;;15.79;64.35;100519.63;5080154;28;20472;-70
2022/10/13 08:39:10;;;;;;;17.47;10.10;;;;;;;15.73;64.61;100517.59;5081364;28;20498;-70
2022/10/13 08:41:39;;;;;;;16.93;9.40;;;;;;;15.82;65.76;100522.00;5079549;28;20472;-71
2022/10/13 08:44:16;;;;;;;16.73;10.63;;;;;;;15.74;64.35;100523.81;5081459;28;20472;-71
2022/10/13 08:46:46;;;;;;;14.50;9.50;;;;;;;15.50;65.55;100522.81;5080490;28;21009;-68
2022/10/13 08:49:15;;;;;;;17.07;9.80;;;;;;;15.50;66.71;100525.50;5079821;28;20463;-70
2022/10/13 08:51:42;;;;;;;14.83;9.23;;;;;;;15.91;64.97;100522.00;5080811;28;20488;-68
2022/10/13 08:54:11;;;;;;;15.77;9.47;;;;;;;15.96;64.12;100527.75;5081622;28;20506;-68
2022/10/13 08:56:37;;;;;;;12.30;9.93;;;;;;;16.29;63.30;100525.03;5058376;28;21008;-68
2022/10/13 08:59:05;;;;;;;15.03;9.00;;;;;;;15.85;64.15;100525.38;5061245;28;20461;-67
2022/10/13 09:01:34;;;;;;;14.47;10.00;;;;;;;16.51;61.77;100512.66;5060869;28;20487;-67
2022/10/13 09:04:15;;;;;;;15.27;8.50;;;;;;;16.66;61.44;100516.31;5060796;28;20465;-70
2022/10/13 09:06:45;;;;;;;13.73;9.10;;;;;;;16.56;62.24;100515.66;5064803;28;20476;-67
2022/10/13 09:09:15;;;;;;;16.80;9.47;;;;;;;16.26;61.96;100517.25;5078808;28;20476;-68
2022/10/13 09:11:44;;;;;;;12.03;10.37;;;;;;;15.81;63.75;100516.78;5078359;28;20491;-68
2022/10/13 09:14:12;;;;;;;16.30;9.50;;;;;;;15.80;63.92;100525.91;5081276;28;20492;-67
2022/10/13 09:16:41;;;;;;;12.27;8.80;;;;;;;15.58;64.30;100530.88;5080648;28;20475;-68
2022/10/13 09:19:20;;;;;;;14.40;10.23;;;;;;;15.77;65.02;100518.97;5074532;28;20461;-68
2022/10/13 09:21:48;;;;;;;17.87;10.00;;;;;;;15.88;64.98;100517.78;5080502;28;20452;-69
2022/10/13 09:24:16;;;;;;;13.70;9.13;;;;;;;15.77;65.40;100515.44;5080463;28;20480;-70
2022/10/13 09:26:47;;;;;;;14.40;10.03;;;;;;;16.04;63.34;100514.25;5059007;28;21191;-69
2022/10/13 09:29:17;;;;;;;12.87;8.97;;;;;;;16.19;63.65;100519.78;5077584;28;21042;-69
2022/10/13 09:31:44;;;;;;;21.97;11.00;;;;;;;16.23;63.14;100510.38;5079880;28;20498;-66
2022/10/13 09:34:15;;;;;;;13.10;8.87;;;;;;;16.29;63.18;100508.81;5079961;28;20437;-69
2022/10/13 09:36:59;;;;;;;12.67;9.00;;;;;;;16.33;62.83;100505.59;5060993;28;20473;-69
2022/10/13 09:39:26;;;;;;;17.17;9.70;;;;;;;16.10;63.74;100507.34;5074208;28;20463;-69
2022/10/13 09:41:53;;;;;;;16.33;9.70;;;;;;;16.66;62.12;100496.56;5082935;28;20539;-70
2022/10/13 09:44:29;;;;;;;13.93;10.90;;;;;;;17.22;60.32;100497.38;5082491;28;20982;-69
2022/10/13 09:47:01;;;;;;;13.97;11.40;;;;;;;17.08;59.95;100490.84;5082226;28;20541;-70
2022/10/13 09:49:34;;;;;;;17.20;9.27;;;;;;;16.97;60.17;100485.84;5074076;28;20505;-69
2022/10/13 09:52:03;;;;;;;15.33;9.77;;;;;;;16.70;61.64;100479.88;5082103;28;20472;-70
2022/10/13 09:54:40;;;;;;;16.10;10.60;;;;;;;16.70;61.11;100484.41;5084750;28;20440;-69
2022/10/13 09:57:13;;;;;;;17.50;9.67;;;;;;;16.45;61.83;100481.78;5094035;28;20471;-69
2022/10/13 09:59:41;;;;;;;16.40;10.13;;;;;;;16.27;62.87;100483.88;5080646;28;20468;-70
2022/10/13 10:02:19;;;;;;;18.70;10.50;;;;;;;16.05;63.56;100483.56;5079880;28;20506;-69
2022/10/13 10:04:46;;;;;;;16.10;10.43;;;;;;;16.79;61.79;100485.19;5077421;28;20512;-68
2022/10/13 10:07:20;;;;;;;13.33;9.20;;;;;;;16.72;61.81;100487.78;5079090;28;20919;-67
2022/10/13 10:09:49;;;;;;;17.10;9.90;;;;;;;16.82;61.45;100483.03;5079725;28;20460;-69
2022/10/13 10:12:18;;;;;;;13.17;10.20;;;;;;;16.89;61.21;100483.16;5078246;28;20877;-70
2022/10/13 10:14:47;;;;;;;13.40;9.57;;;;;;;17.47;59.43;100480.97;5079929;28;20460;-69
2022/10/13 10:17:19;;;;;;;16.03;10.30;;;;;;;17.81;58.58;100479.69;5078639;28;20526;-68
2022/10/13 10:19:53;;;;;;;15.47;9.90;;;;;;;17.58;58.31;100466.19;5079946;28;20483;-69
2022/10/13 10:22:30;;;;;;;16.40;10.03;;;;;;;16.93;61.17;100468.31;5095060;28;20490;-69
2022/10/13 10:25:03;;;;;;;13.33;10.37;;;;;;;16.49;62.19;100466.97;5081887;28;20471;-69
2022/10/13 10:27:35;;;;;;;19.50;10.33;;;;;;;16.59;63.10;100457.81;5079501;28;20497;-69
2022/10/13 10:30:04;;;;;;;17.17;10.53;;;;;;;16.61;62.58;100453.91;5084980;28;20898;-67
2022/10/13 10:32:37;;;;;;;18.73;10.50;;;;;;;16.84;62.33;100459.41;5077276;27;20543;-69
2022/10/13 10:35:11;;;;;;;14.53;9.63;;;;;;;16.69;61.84;100455.75;5069249;28;20521;-69
2022/10/13 10:37:49;;;;;;;13.27;9.20;;;;;;;16.79;62.67;100460.91;5075345;28;20514;-69
2022/10/13 10:40:25;;;;;;;17.23;10.20;;;;;;;17.07;61.39;100461.31;5075496;27;20443;-69
2022/10/13 10:43:07;;;;;;;14.70;9.73;;;;;;;17.50;59.85;100459.84;5082154;28;20566;-69
2022/10/13 10:45:38;;;;;;;13.07;10.13;;;;;;;17.26;60.98;100454.63;5070179;28;20473;-71
2022/10/13 10:48:12;;;;;;;12.57;9.33;;;;;;;17.16;60.96;100449.44;5087529;28;20443;-70
2022/10/13 10:50:39;;;;;;;14.17;9.53;;;;;;;17.27;61.15;100451.72;5080087;28;21581;-71
2022/10/13 10:53:13;;;;;;;13.93;9.50;;;;;;;17.58;59.53;100455.38;5076652;28;20496;-68
2022/10/13 10:55:46;;;;;;;16.73;10.77;;;;;;;17.09;60.68;100441.19;5062504;28;20479;-69
2022/10/13 10:58:22;;;;;;;12.97;8.73;;;;;;;16.88;61.47;100441.81;5079999;28;20452;-69
2022/10/13 11:00:53;;;;;;;16.97;10.77;;;;;;;16.84;62.33;100437.81;5081390;28;20599;-70
2022/10/13 11:03:28;;;;;;;17.70;10.43;;;;;;;16.81;61.74;100431.91;5082559;28;20471;-69
2022/10/13 11:06:03;;;;;;;14.17;8.87;;;;;;;16.94;61.88;100435.72;5081856;28;20509;-69
2022/10/13 11:08:40;;;;;;;11.07;8.77;;;;;;;16.68;62.84;100443.25;5082169;28;20459;-69
2022/10/13 11:11:34;;;;;;;16.27;9.17;;;;;;;16.86;62.46;100421.44;5081342;28;20491;-68
2022/10/13 11:14:22;;;;;;;13.60;9.07;;;;;;;16.79;62.89;100423.09;5082250;28;20531;-70
2022/10/13 11:17:08;;;;;;;14.87;9.93;;;;;;;16.96;61.74;100411.25;5061536;28;20484;-69
2022/10/13 11:19:36;;;;;;;15.00;9.83;;;;;;;16.82;62.30;100412.81;5079654;28;20463;-69
2022/10/13 11:22:22;;;;;;;11.93;8.40;;;;;;;17.02;62.79;100407.81;5062685;28;21378;-69
2022/10/13 11:25:22;;;;;;;13.90;8.63;;;;;;;17.37;60.13;100410.94;5062275;28;20484;-70
2022/10/13 11:27:50;;;;;;;15.80;10.00;;;;;;;17.46;60.08;100403.59;5047058;28;20457;-70
2022/10/13 11:30:43;;;;;;;10.60;8.70;;;;;;;17.64;59.35;100411.41;5061666;28;20453;-69
2022/10/13 11:33:46;;;;;;;13.43;9.27;;;;;;;17.89;59.04;100398.50;5078772;28;20436;-70